Time;durP1;ratioP1;P1;durP2;ratioP2;P2;SDS_P1;SDS_P2;PMS_P1;PMS_P2;Temp;Humidity;BMP_temperature;BMP_pressure;BME280_temperature;BME280_humidity;BME280_pressure;Samples;Min_cycle;Max_cycle;Signal;HPM_P1;HPM_P2
2022/01/01 00:02:11;;;;;;;2.92;1.90;;;;;;;;;;4975921;28;20050;-80
2022/01/01 00:04:36;;;;;;;1.60;1.50;;;;;;;;;;4975217;28;20037;-79
2022/01/01 00:07:02;;;;;;;1.85;1.65;;;;;;;;;;4974314;28;20739;-82
2022/01/01 00:09:27;;;;;;;1.88;1.77;;;;;;;;;;4975077;28;20053;-83
2022/01/01 00:11:52;;;;;;;2.45;1.80;;;;;;;;;;4978096;28;20033;-80
2022/01/01 00:14:18;;;;;;;2.15;1.90;;;;;;;;;;4974541;28;20026;-81
2022/01/01 00:16:43;;;;;;;2.50;1.77;;;;;;;;;;4975038;28;20030;-82
2022/01/01 00:19:08;;;;;;;3.22;2.05;;;;;;;;;;4975868;28;20069;-79
2022/01/01 00:21:34;;;;;;;2.65;2.13;;;;;;;;;;4974881;28;20182;-82
2022/01/01 00:23:59;;;;;;;1.80;1.70;;;;;;;;;;4977797;28;20073;-82
2022/01/01 00:26:24;;;;;;;3.30;2.10;;;;;;;;;;4978889;28;20066;-82
2022/01/01 00:28:50;;;;;;;2.08;1.88;;;;;;;;;;4977958;28;20109;-81
2022/01/01 00:31:15;;;;;;;2.30;1.95;;;;;;;;;;4975292;28;20033;-81
2022/01/01 00:33:40;;;;;;;2.05;1.88;;;;;;;;;;4975148;28;20123;-82
2022/01/01 00:36:06;;;;;;;1.73;1.63;;;;;;;;;;4988124;28;20362;-79
2022/01/01 00:38:31;;;;;;;2.20;2.05;;;;;;;;;;4989858;28;20421;-82
2022/01/01 00:40:56;;;;;;;2.50;2.03;;;;;;;;;;4991354;28;20034;-82
2022/01/01 00:43:22;;;;;;;1.90;1.80;;;;;;;;;;4990028;28;20039;-81
2022/01/01 00:45:47;;;;;;;1.83;1.60;;;;;;;;;;4973743;28;20031;-78
2022/01/01 00:48:12;;;;;;;2.00;1.80;;;;;;;;;;4973637;28;20153;-81
2022/01/01 00:50:38;;;;;;;2.30;2.08;;;;;;;;;;4961981;28;20096;-82
2022/01/01 00:53:03;;;;;;;1.77;1.67;;;;;;;;;;4960738;28;20031;-83
2022/01/01 00:55:28;;;;;;;1.75;1.63;;;;;;;;;;4977492;28;20442;-82
2022/01/01 00:57:54;;;;;;;2.00;1.80;;;;;;;;;;4989527;28;20549;-84
2022/01/01 01:00:19;;;;;;;1.80;1.70;;;;;;;;;;4974869;28;20742;-79
2022/01/01 01:02:44;;;;;;;1.83;1.60;;;;;;;;;;4974675;28;20549;-81
2022/01/01 01:05:10;;;;;;;2.30;1.90;;;;;;;;;;4959767;28;20453;-81
2022/01/01 01:07:35;;;;;;;1.90;1.75;;;;;;;;;;4989923;28;20037;-81
2022/01/01 01:10:01;;;;;;;1.85;1.70;;;;;;;;;;4975972;28;20033;-81
2022/01/01 01:12:36;;;;;;;2.33;1.92;;;;;;;;;;4990716;28;20473;-82
2022/01/01 01:15:03;;;;;;;2.92;2.17;;;;;;;;;;4973475;28;20034;-81
2022/01/01 01:17:28;;;;;;;4.88;2.20;;;;;;;;;;4988052;28;20034;-81
2022/01/01 01:19:54;;;;;;;3.42;2.35;;;;;;;;;;4976798;28;20081;-82
2022/01/01 01:22:19;;;;;;;5.80;2.47;;;;;;;;;;4975743;28;20063;-79
2022/01/01 01:24:44;;;;;;;4.63;2.13;;;;;;;;;;4975465;28;20081;-82
2022/01/01 01:27:10;;;;;;;4.20;2.55;;;;;;;;;;4974584;28;20039;-81
2022/01/01 01:29:41;;;;;;;2.88;2.13;;;;;;;;;;4975442;28;20023;-82
2022/01/01 01:32:07;;;;;;;3.00;2.40;;;;;;;;;;4978947;28;20034;-82
2022/01/01 01:34:32;;;;;;;2.92;2.03;;;;;;;;;;4992063;28;20030;-81
2022/01/01 01:36:57;;;;;;;3.47;2.10;;;;;;;;;;4990532;28;20321;-81
2022/01/01 01:39:23;;;;;;;5.65;2.50;;;;;;;;;;4990179;28;20113;-81
2022/01/01 01:41:51;;;;;;;3.67;2.22;;;;;;;;;;4975630;28;20031;-81
2022/01/01 01:44:45;;;;;;;2.35;2.15;;;;;;;;;;4974866;28;20522;-80
2022/01/01 01:47:16;;;;;;;2.22;1.80;;;;;;;;;;4972421;28;20089;-80
2022/01/01 01:49:42;;;;;;;2.72;1.88;;;;;;;;;;4976188;28;20035;-81
2022/01/01 01:52:08;;;;;;;1.98;1.77;;;;;;;;;;4974403;28;20099;-81
2022/01/01 01:54:33;;;;;;;1.90;1.60;;;;;;;;;;4990823;28;20117;-81
2022/01/01 01:56:58;;;;;;;1.88;1.77;;;;;;;;;;4992325;28;20034;-80
2022/01/01 01:59:24;;;;;;;2.10;1.80;;;;;;;;;;4976586;28;20117;-83
2022/01/01 02:01:50;;;;;;;4.35;2.30;;;;;;;;;;4976996;28;20060;-82
2022/01/01 02:04:15;;;;;;;2.33;1.92;;;;;;;;;;4975467;28;20019;-80
2022/01/01 02:06:41;;;;;;;3.78;2.13;;;;;;;;;;4989086;28;20039;-82
2022/01/01 02:09:06;;;;;;;2.72;2.10;;;;;;;;;;4974202;28;20393;-80
2022/01/01 02:11:31;;;;;;;2.60;2.13;;;;;;;;;;4989480;28;20054;-81
2022/01/01 02:18:51;;;;;;;2.20;2.00;;;;;;;;;;4993296;28;20032;-81
2022/01/01 02:21:16;;;;;;;4.15;2.38;;;;;;;;;;4979311;28;20560;-80
2022/01/01 02:23:44;;;;;;;4.50;2.20;;;;;;;;;;4977932;28;20124;-81
2022/01/01 02:26:12;;;;;;;2.10;1.90;;;;;;;;;;4965694;28;20272;-80
2022/01/01 02:28:47;;;;;;;2.20;1.92;;;;;;;;;;4979146;28;20422;-83
2022/01/01 02:31:13;;;;;;;2.65;2.20;;;;;;;;;;4976492;28;20114;-81
2022/01/01 02:33:39;;;;;;;3.33;2.28;;;;;;;;;;4980127;28;20084;-81
2022/01/01 02:36:04;;;;;;;4.32;2.55;;;;;;;;;;4975863;28;20298;-81
2022/01/01 02:38:31;;;;;;;4.63;2.10;;;;;;;;;;4979880;28;20101;-81
2022/01/01 02:40:57;;;;;;;2.38;2.17;;;;;;;;;;4975610;28;20034;-81
2022/01/01 02:43:22;;;;;;;3.15;2.25;;;;;;;;;;4976791;28;20077;-81
2022/01/01 02:45:49;;;;;;;3.17;2.20;;;;;;;;;;4991625;28;20034;-82
2022/01/01 02:48:15;;;;;;;2.53;1.95;;;;;;;;;;4965228;28;20030;-82
2022/01/01 02:50:40;;;;;;;3.03;2.30;;;;;;;;;;4991089;28;20397;-81
2022/01/01 02:53:12;;;;;;;3.13;2.22;;;;;;;;;;4992039;28;20390;-81
2022/01/01 02:55:39;;;;;;;2.88;2.20;;;;;;;;;;4977775;28;20473;-81
2022/01/01 02:58:04;;;;;;;4.63;2.30;;;;;;;;;;4965752;28;20041;-81
2022/01/01 03:00:29;;;;;;;2.90;2.03;;;;;;;;;;4991283;28;20415;-82
2022/01/01 03:02:55;;;;;;;3.35;2.20;;;;;;;;;;4992509;28;20413;-81
2022/01/01 03:05:20;;;;;;;3.17;2.50;;;;;;;;;;4978314;28;20148;-82
2022/01/01 03:07:45;;;;;;;3.88;2.28;;;;;;;;;;4993739;28;20030;-81
2022/01/01 03:10:11;;;;;;;2.40;2.20;;;;;;;;;;4977273;28;20405;-80
2022/01/01 03:12:36;;;;;;;3.85;2.47;;;;;;;;;;4976811;28;20027;-81
2022/01/01 03:15:01;;;;;;;2.80;2.15;;;;;;;;;;4977176;28;20473;-81
2022/01/01 03:17:27;;;;;;;2.55;2.22;;;;;;;;;;4993708;28;20113;-81
2022/01/01 03:19:52;;;;;;;2.95;2.65;;;;;;;;;;4963674;28;20382;-82
2022/01/01 03:22:17;;;;;;;2.25;1.95;;;;;;;;;;4965500;28;20367;-82
2022/01/01 03:24:43;;;;;;;4.40;2.30;;;;;;;;;;4977077;28;20566;-81
2022/01/01 03:27:08;;;;;;;2.50;2.13;;;;;;;;;;4992213;28;20508;-81
2022/01/01 03:29:33;;;;;;;3.03;2.20;;;;;;;;;;4978396;28;20229;-82
2022/01/01 03:31:59;;;;;;;2.60;2.30;;;;;;;;;;4976827;28;20072;-80
2022/01/01 03:34:24;;;;;;;2.53;2.30;;;;;;;;;;4990730;28;20035;-81
2022/01/01 03:36:49;;;;;;;2.28;2.00;;;;;;;;;;4992078;28;20068;-81
2022/01/01 03:39:15;;;;;;;3.60;2.40;;;;;;;;;;4991801;28;20027;-81
2022/01/01 03:41:40;;;;;;;5.38;2.50;;;;;;;;;;4991569;28;20629;-81
2022/01/01 03:44:05;;;;;;;4.03;2.58;;;;;;;;;;4980609;28;20058;-81
2022/01/01 03:46:31;;;;;;;2.70;2.45;;;;;;;;;;4977282;28;20065;-81
2022/01/01 03:48:56;;;;;;;3.05;2.50;;;;;;;;;;4963923;28;20057;-82
2022/01/01 03:51:21;;;;;;;5.03;2.78;;;;;;;;;;4976871;28;20465;-81
2022/01/01 03:53:47;;;;;;;4.57;3.10;;;;;;;;;;4976966;28;20038;-81
2022/01/01 03:56:14;;;;;;;5.05;3.30;;;;;;;;;;4992338;28;20022;-82
2022/01/01 03:58:40;;;;;;;3.17;2.88;;;;;;;;;;4974969;28;20053;-82
2022/01/01 04:01:05;;;;;;;3.05;2.55;;;;;;;;;;4975517;28;20030;-81
2022/01/01 04:03:30;;;;;;;3.15;2.72;;;;;;;;;;4992449;28;20493;-81
2022/01/01 04:05:56;;;;;;;3.95;2.75;;;;;;;;;;4977069;28;20080;-82
2022/01/01 04:08:21;;;;;;;2.88;2.50;;;;;;;;;;4976580;28;20022;-81
2022/01/01 04:10:46;;;;;;;4.90;2.72;;;;;;;;;;4967235;28;20030;-81
2022/01/01 04:13:15;;;;;;;2.67;2.33;;;;;;;;;;4992056;28;20542;-82
2022/01/01 04:15:41;;;;;;;2.60;2.38;;;;;;;;;;4978088;28;20122;-80
2022/01/01 04:18:12;;;;;;;2.85;2.30;;;;;;;;;;4976345;28;20022;-81
2022/01/01 04:20:38;;;;;;;5.82;2.60;;;;;;;;;;4977638;28;20027;-81
2022/01/01 04:23:07;;;;;;;2.88;2.30;;;;;;;;;;4976964;28;20876;-80
2022/01/01 04:25:32;;;;;;;2.70;2.00;;;;;;;;;;4976350;28;20062;-81
2022/01/01 04:27:57;;;;;;;4.43;2.55;;;;;;;;;;4975923;28;20030;-80
2022/01/01 04:30:23;;;;;;;3.00;2.45;;;;;;;;;;4977246;28;20042;-80
2022/01/01 04:32:48;;;;;;;2.92;2.20;;;;;;;;;;4975035;28;20031;-81
2022/01/01 04:35:14;;;;;;;2.78;2.30;;;;;;;;;;4993736;28;20054;-80
2022/01/01 04:37:39;;;;;;;3.25;2.40;;;;;;;;;;4977798;28;20043;-80
2022/01/01 04:40:05;;;;;;;2.90;2.50;;;;;;;;;;4976533;28;20526;-80
2022/01/01 04:42:31;;;;;;;2.40;2.20;;;;;;;;;;4981229;28;20287;-81
2022/01/01 04:44:57;;;;;;;3.35;2.65;;;;;;;;;;4984470;28;20019;-81
2022/01/01 04:47:23;;;;;;;3.13;2.47;;;;;;;;;;4983753;28;20026;-81
2022/01/01 04:49:48;;;;;;;2.70;2.38;;;;;;;;;;4980248;28;20041;-81
2022/01/01 04:52:13;;;;;;;4.10;2.53;;;;;;;;;;4980918;28;20024;-81
2022/01/01 04:54:41;;;;;;;3.00;2.47;;;;;;;;;;4980728;28;20086;-81
2022/01/01 04:57:07;;;;;;;3.97;2.35;;;;;;;;;;4982559;28;20022;-80
2022/01/01 04:59:33;;;;;;;3.15;2.53;;;;;;;;;;4994339;28;20083;-80
2022/01/01 05:01:58;;;;;;;3.17;2.35;;;;;;;;;;4978145;28;20339;-80
2022/01/01 05:04:24;;;;;;;4.80;2.60;;;;;;;;;;4996036;28;20034;-80
2022/01/01 05:06:49;;;;;;;2.42;2.22;;;;;;;;;;4979344;28;20061;-80
2022/01/01 05:09:16;;;;;;;2.63;2.42;;;;;;;;;;4984331;28;20014;-80
2022/01/01 05:11:41;;;;;;;4.53;3.03;;;;;;;;;;4995795;28;20034;-80
2022/01/01 05:14:07;;;;;;;2.58;2.20;;;;;;;;;;4997108;28;20030;-81
2022/01/01 05:16:32;;;;;;;3.47;2.50;;;;;;;;;;4979038;28;20083;-80
2022/01/01 05:18:57;;;;;;;3.70;2.53;;;;;;;;;;4995347;28;20098;-80
2022/01/01 05:21:23;;;;;;;4.65;2.78;;;;;;;;;;4981149;28;20432;-80
2022/01/01 05:23:48;;;;;;;4.28;2.50;;;;;;;;;;4982532;28;20030;-80
2022/01/01 05:26:13;;;;;;;2.90;2.45;;;;;;;;;;4980902;28;20034;-80
2022/01/01 05:28:39;;;;;;;4.75;2.80;;;;;;;;;;4981120;28;20054;-80
2022/01/01 05:31:04;;;;;;;2.90;2.55;;;;;;;;;;4980245;28;20490;-80
2022/01/01 05:33:30;;;;;;;4.22;2.90;;;;;;;;;;4995918;28;20397;-80
2022/01/01 05:35:55;;;;;;;4.68;2.85;;;;;;;;;;4977352;28;20291;-80
2022/01/01 05:38:20;;;;;;;3.67;2.33;;;;;;;;;;4981860;28;20101;-80
2022/01/01 05:40:46;;;;;;;5.20;3.33;;;;;;;;;;4980688;28;20133;-80
2022/01/01 05:43:13;;;;;;;3.92;2.78;;;;;;;;;;4994536;28;20078;-80
2022/01/01 05:45:40;;;;;;;4.18;2.85;;;;;;;;;;4994057;28;20019;-81
2022/01/01 05:48:05;;;;;;;4.43;2.47;;;;;;;;;;4980056;28;20034;-80
2022/01/01 05:50:30;;;;;;;4.65;2.78;;;;;;;;;;4977692;28;20446;-80
2022/01/01 05:52:56;;;;;;;3.90;2.50;;;;;;;;;;4997222;28;20794;-80
2022/01/01 05:55:21;;;;;;;3.65;2.63;;;;;;;;;;4999887;28;20544;-80
2022/01/01 05:57:46;;;;;;;2.97;2.63;;;;;;;;;;4984095;28;20513;-80
2022/01/01 06:00:13;;;;;;;3.30;2.78;;;;;;;;;;4980327;28;20034;-80
2022/01/01 06:02:41;;;;;;;5.75;2.95;;;;;;;;;;4981857;28;20030;-80
2022/01/01 06:05:07;;;;;;;3.92;2.60;;;;;;;;;;4998025;28;20023;-80
2022/01/01 06:07:32;;;;;;;3.65;2.90;;;;;;;;;;4998564;28;20392;-80
2022/01/01 06:09:57;;;;;;;3.92;2.97;;;;;;;;;;4983721;28;20042;-80
2022/01/01 06:12:23;;;;;;;3.20;2.30;;;;;;;;;;4983734;28;20088;-80
2022/01/01 06:14:48;;;;;;;2.95;2.67;;;;;;;;;;4984212;28;20034;-80
2022/01/01 06:17:13;;;;;;;3.10;2.47;;;;;;;;;;4982887;28;20026;-80
2022/01/01 06:19:39;;;;;;;3.55;2.80;;;;;;;;;;4982652;28;20097;-80
2022/01/01 06:22:04;;;;;;;3.72;2.70;;;;;;;;;;4983621;28;20054;-80
2022/01/01 06:24:29;;;;;;;5.88;2.95;;;;;;;;;;4987513;28;20038;-80
2022/01/01 06:26:55;;;;;;;3.05;2.75;;;;;;;;;;4999031;28;20039;-80
2022/01/01 06:29:20;;;;;;;4.00;2.67;;;;;;;;;;4968932;28;20037;-80
2022/01/01 06:31:45;;;;;;;3.10;2.80;;;;;;;;;;4997920;28;20138;-80
2022/01/01 06:34:11;;;;;;;3.13;2.58;;;;;;;;;;4984503;28;20057;-80
2022/01/01 06:36:36;;;;;;;3.97;2.75;;;;;;;;;;4987352;28;20058;-80
2022/01/01 06:39:01;;;;;;;3.25;2.75;;;;;;;;;;4998066;28;20062;-80
2022/01/01 06:41:27;;;;;;;4.57;2.70;;;;;;;;;;4984920;28;20027;-80
2022/01/01 06:43:52;;;;;;;7.05;2.55;;;;;;;;;;4981744;28;20517;-78
2022/01/01 06:46:17;;;;;;;3.83;2.90;;;;;;;;;;4999567;28;20054;-78
2022/01/01 06:48:43;;;;;;;4.35;2.88;;;;;;;;;;4981353;28;20073;-78
2022/01/01 06:51:08;;;;;;;3.60;2.95;;;;;;;;;;4985454;28;20019;-78
2022/01/01 06:53:34;;;;;;;3.22;2.85;;;;;;;;;;4986003;28;20069;-78
2022/01/01 06:56:05;;;;;;;3.45;2.60;;;;;;;;;;4999446;28;20679;-78
2022/01/01 06:58:30;;;;;;;3.78;2.88;;;;;;;;;;4986212;28;20442;-78
2022/01/01 07:00:56;;;;;;;3.45;2.90;;;;;;;;;;4982702;28;20042;-78
2022/01/01 07:03:22;;;;;;;4.32;2.92;;;;;;;;;;4983485;28;20403;-78
2022/01/01 07:05:48;;;;;;;3.17;2.60;;;;;;;;;;4999224;28;20049;-78
2022/01/01 07:08:13;;;;;;;4.22;2.78;;;;;;;;;;4984771;28;20026;-78
2022/01/01 07:10:41;;;;;;;4.70;3.05;;;;;;;;;;4999852;28;20034;-78
2022/01/01 07:13:06;;;;;;;4.03;2.70;;;;;;;;;;4985852;28;20108;-78
2022/01/01 07:15:32;;;;;;;3.33;2.80;;;;;;;;;;4999783;28;20124;-78
2022/01/01 07:17:57;;;;;;;4.38;2.97;;;;;;;;;;4954460;28;20031;-78
2022/01/01 07:20:22;;;;;;;4.13;2.70;;;;;;;;;;4982628;28;20054;-78
2022/01/01 07:22:48;;;;;;;4.50;3.00;;;;;;;;;;4983597;28;20030;-78
2022/01/01 07:25:13;;;;;;;5.00;3.08;;;;;;;;;;4982171;28;20113;-78
2022/01/01 07:27:39;;;;;;;3.78;2.60;;;;;;;;;;4992152;28;20355;-78
2022/01/01 07:30:05;;;;;;;3.08;2.78;;;;;;;;;;4980006;28;20041;-78
2022/01/01 07:32:30;;;;;;;3.78;2.92;;;;;;;;;;4996502;28;20538;-78
2022/01/01 07:34:55;;;;;;;2.55;2.05;;;;;;;;;;4997414;28;20061;-78
2022/01/01 07:37:21;;;;;;;5.20;2.83;;;;;;;;;;4983851;28;20029;-79
2022/01/01 07:39:46;;;;;;;2.33;2.13;;;;;;;;;;4997973;28;20035;-79
2022/01/01 07:42:14;;;;;;;3.30;2.42;;;;;;;;;;4997481;28;20061;-79
2022/01/01 07:44:40;;;;;;;3.67;2.50;;;;;;;;;;4966654;28;20062;-79
2022/01/01 07:47:06;;;;;;;4.03;2.72;;;;;;;;;;4964972;28;20081;-78
2022/01/01 07:49:31;;;;;;;5.30;2.90;;;;;;;;;;4997843;28;20112;-78
2022/01/01 07:51:56;;;;;;;7.75;2.53;;;;;;;;;;4998094;28;20076;-79
2022/01/01 07:54:22;;;;;;;3.28;2.50;;;;;;;;;;4979692;28;20090;-78
2022/01/01 07:56:47;;;;;;;3.85;2.55;;;;;;;;;;4981861;28;20434;-79
2022/01/01 07:59:12;;;;;;;3.80;2.72;;;;;;;;;;4984358;28;20556;-79
2022/01/01 08:01:38;;;;;;;3.58;2.40;;;;;;;;;;4979582;28;20141;-79
2022/01/01 08:04:03;;;;;;;3.33;2.63;;;;;;;;;;4980984;28;20105;-79
2022/01/01 08:06:30;;;;;;;3.42;2.67;;;;;;;;;;4981218;28;20085;-78
2022/01/01 08:08:55;;;;;;;3.88;2.88;;;;;;;;;;4989610;28;20035;-78
2022/01/01 08:11:20;;;;;;;3.85;2.88;;;;;;;;;;4975249;28;20140;-78
2022/01/01 08:13:45;;;;;;;3.10;2.53;;;;;;;;;;4976492;28;20026;-78
2022/01/01 08:16:11;;;;;;;6.95;2.83;;;;;;;;;;4992816;28;20030;-78
2022/01/01 08:18:36;;;;;;;3.15;2.70;;;;;;;;;;4978239;28;20901;-78
2022/01/01 08:21:02;;;;;;;3.47;2.95;;;;;;;;;;4975994;28;20026;-78
2022/01/01 08:23:27;;;;;;;3.67;2.97;;;;;;;;;;4975684;28;20441;-77
2022/01/01 08:25:52;;;;;;;4.50;3.20;;;;;;;;;;4975364;28;20027;-78
2022/01/01 08:28:17;;;;;;;3.85;3.17;;;;;;;;;;4989532;28;20015;-77
2022/01/01 08:30:43;;;;;;;4.00;2.88;;;;;;;;;;4972942;28;20066;-75
2022/01/01 08:33:08;;;;;;;3.13;2.72;;;;;;;;;;4971773;28;20051;-76
2022/01/01 08:35:34;;;;;;;4.03;2.95;;;;;;;;;;4972687;28;20144;-76
2022/01/01 08:38:00;;;;;;;5.00;2.67;;;;;;;;;;4973619;28;20033;-76
2022/01/01 08:40:26;;;;;;;4.38;2.53;;;;;;;;;;4972315;28;20033;-76
2022/01/01 08:42:51;;;;;;;3.10;2.15;;;;;;;;;;4971714;28;20040;-76
2022/01/01 08:45:16;;;;;;;4.35;2.75;;;;;;;;;;4960619;28;20027;-76
2022/01/01 08:47:42;;;;;;;11.13;3.15;;;;;;;;;;4973586;28;20035;-76
2022/01/01 08:50:08;;;;;;;5.45;2.72;;;;;;;;;;4974462;28;20045;-76
2022/01/01 08:52:34;;;;;;;3.95;2.75;;;;;;;;;;4975292;28;20043;-76
2022/01/01 08:54:59;;;;;;;2.97;2.45;;;;;;;;;;4974181;28;20039;-76
2022/01/01 08:57:25;;;;;;;4.60;3.15;;;;;;;;;;4972418;28;20033;-76
2022/01/01 08:59:50;;;;;;;4.82;2.58;;;;;;;;;;4987895;28;20032;-76
2022/01/01 09:02:16;;;;;;;4.65;2.97;;;;;;;;;;4971441;28;20434;-76
2022/01/01 09:04:41;;;;;;;3.63;2.88;;;;;;;;;;4972618;28;20436;-76
2022/01/01 09:07:06;;;;;;;3.83;3.28;;;;;;;;;;4987327;28;20022;-76
2022/01/01 09:09:32;;;;;;;6.00;3.38;;;;;;;;;;4972210;28;20044;-76
2022/01/01 09:11:57;;;;;;;5.45;4.13;;;;;;;;;;4974315;28;20053;-76
2022/01/01 09:14:22;;;;;;;4.20;3.55;;;;;;;;;;4986487;28;20065;-76
2022/01/01 09:16:48;;;;;;;4.50;3.75;;;;;;;;;;4988025;28;20038;-76
2022/01/01 09:19:13;;;;;;;4.90;3.33;;;;;;;;;;4971889;28;20019;-76
2022/01/01 09:21:39;;;;;;;4.38;3.33;;;;;;;;;;4970956;28;20035;-75
2022/01/01 09:24:04;;;;;;;4.13;2.80;;;;;;;;;;4972708;28;20027;-75
2022/01/01 09:26:30;;;;;;;4.82;3.10;;;;;;;;;;4971554;28;20481;-76
2022/01/01 09:28:55;;;;;;;4.15;3.03;;;;;;;;;;4964086;28;20035;-76
2022/01/01 09:31:20;;;;;;;7.78;3.47;;;;;;;;;;4974718;28;20034;-76
2022/01/01 09:33:46;;;;;;;5.72;3.25;;;;;;;;;;4963276;28;20037;-76
2022/01/01 09:36:14;;;;;;;6.30;3.90;;;;;;;;;;4970217;28;20066;-76
2022/01/01 09:38:40;;;;;;;4.88;3.55;;;;;;;;;;4972871;28;20030;-75
2022/01/01 09:41:05;;;;;;;6.35;4.20;;;;;;;;;;4989898;28;20610;-76
2022/01/01 09:43:31;;;;;;;7.53;4.10;;;;;;;;;;4976242;28;20034;-76
2022/01/01 09:45:57;;;;;;;5.85;4.07;;;;;;;;;;4974747;28;20058;-76
2022/01/01 09:48:23;;;;;;;7.40;4.20;;;;;;;;;;4974505;28;20093;-76
2022/01/01 09:50:49;;;;;;;5.43;3.80;;;;;;;;;;4973731;28;20489;-76
2022/01/01 09:53:15;;;;;;;5.00;3.92;;;;;;;;;;4990743;28;20145;-76
2022/01/01 09:55:41;;;;;;;5.85;3.70;;;;;;;;;;4975689;28;20038;-76
2022/01/01 09:58:06;;;;;;;6.28;3.58;;;;;;;;;;4992223;28;20026;-76
2022/01/01 10:00:31;;;;;;;5.60;3.83;;;;;;;;;;4975764;28;20101;-76
2022/01/01 10:02:57;;;;;;;5.80;3.67;;;;;;;;;;4976713;28;20038;-76
2022/01/01 10:05:22;;;;;;;5.70;3.58;;;;;;;;;;4987651;28;20031;-76
2022/01/01 10:07:47;;;;;;;5.05;3.30;;;;;;;;;;4974571;28;20193;-76
2022/01/01 10:10:18;;;;;;;5.60;3.92;;;;;;;;;;4974829;28;20355;-76
2022/01/01 10:12:43;;;;;;;6.93;3.17;;;;;;;;;;4977082;28;20148;-76
2022/01/01 10:15:08;;;;;;;7.07;3.20;;;;;;;;;;4974094;28;20113;-76
2022/01/01 10:17:34;;;;;;;3.97;3.13;;;;;;;;;;4975155;28;20113;-76
2022/01/01 10:19:59;;;;;;;3.35;3.00;;;;;;;;;;4975405;28;20133;-75
2022/01/01 10:22:25;;;;;;;4.68;3.50;;;;;;;;;;4974354;28;20412;-75
2022/01/01 10:27:59;;;;;;;3.75;2.92;;;;;;;;;;4974849;28;20098;-75
2022/01/01 10:30:36;;;;;;;4.35;2.80;;;;;;;;;;4989980;28;20306;-75
2022/01/01 10:33:20;;;;;;;3.30;2.42;;;;;;;;;;4974248;28;20895;-75
2022/01/01 10:36:04;;;;;;;2.63;2.22;;;;;;;;;;4973022;28;20041;-75
2022/01/01 10:38:29;;;;;;;3.05;2.00;;;;;;;;;;4977030;28;20038;-75
2022/01/01 10:40:57;;;;;;;2.45;2.05;;;;;;;;;;4974669;28;20030;-75
2022/01/01 10:43:24;;;;;;;1.75;1.63;;;;;;;;;;4991434;28;20034;-75
2022/01/01 10:45:50;;;;;;;2.63;1.90;;;;;;;;;;4980129;28;20393;-75
2022/01/01 10:48:20;;;;;;;3.40;1.92;;;;;;;;;;4978848;28;20038;-75
2022/01/01 10:50:45;;;;;;;2.35;2.15;;;;;;;;;;4987473;28;20033;-75
2022/01/01 10:53:15;;;;;;;3.33;2.22;;;;;;;;;;4989365;28;20026;-75
2022/01/01 10:55:44;;;;;;;2.03;1.90;;;;;;;;;;4984396;28;20031;-74
2022/01/01 10:58:16;;;;;;;2.10;1.90;;;;;;;;;;4963004;28;20109;-75
2022/01/01 11:00:41;;;;;;;2.65;1.83;;;;;;;;;;4972885;28;20494;-75
2022/01/01 11:03:08;;;;;;;2.40;2.20;;;;;;;;;;4989811;28;20042;-75
2022/01/01 11:05:34;;;;;;;2.08;1.77;;;;;;;;;;4974013;28;20220;-74
2022/01/01 11:08:00;;;;;;;2.00;1.80;;;;;;;;;;4972922;28;20034;-74
2022/01/01 11:10:26;;;;;;;2.53;1.67;;;;;;;;;;4974125;28;20018;-75
2022/01/01 11:12:52;;;;;;;1.90;1.70;;;;;;;;;;4975263;28;20030;-75
2022/01/01 11:15:18;;;;;;;1.88;1.70;;;;;;;;;;4958421;28;21026;-75
2022/01/01 11:17:43;;;;;;;1.58;1.48;;;;;;;;;;4973203;28;20069;-75
2022/01/01 11:20:09;;;;;;;1.83;1.63;;;;;;;;;;4988149;28;20126;-75
2022/01/01 11:22:34;;;;;;;1.67;1.50;;;;;;;;;;4971503;28;20677;-75
2022/01/01 11:25:00;;;;;;;2.25;1.70;;;;;;;;;;4988582;28;20477;-75
2022/01/01 11:27:26;;;;;;;1.73;1.50;;;;;;;;;;4975152;28;20030;-75
2022/01/01 11:29:52;;;;;;;1.50;1.40;;;;;;;;;;4973731;28;20027;-75
2022/01/01 11:32:40;;;;;;;1.95;1.70;;;;;;;;;;4969993;28;20038;-74
2022/01/01 11:35:08;;;;;;;2.13;1.80;;;;;;;;;;4971234;28;20113;-75
2022/01/01 11:37:53;;;;;;;2.40;1.75;;;;;;;;;;4970959;28;20034;-74
2022/01/01 11:40:18;;;;;;;1.88;1.70;;;;;;;;;;4973297;28;20030;-74
2022/01/01 11:42:45;;;;;;;1.70;1.60;;;;;;;;;;4971348;28;20116;-75
2022/01/01 11:45:10;;;;;;;2.20;1.92;;;;;;;;;;4958551;28;20625;-75
2022/01/01 11:47:35;;;;;;;1.90;1.70;;;;;;;;;;4972492;28;20115;-74
2022/01/01 11:50:01;;;;;;;1.83;1.60;;;;;;;;;;4970742;28;20030;-74
2022/01/01 11:52:41;;;;;;;2.30;1.40;;;;;;;;;;4974901;28;20035;-74
2022/01/01 11:55:12;;;;;;;1.90;1.48;;;;;;;;;;4972709;28;20047;-74
2022/01/01 11:57:37;;;;;;;1.70;1.60;;;;;;;;;;4973999;28;20121;-74
2022/01/01 12:00:10;;;;;;;1.38;1.25;;;;;;;;;;4986557;28;20544;-76
2022/01/01 12:02:36;;;;;;;1.30;1.20;;;;;;;;;;4971294;28;20043;-74
2022/01/01 12:05:16;;;;;;;2.00;1.50;;;;;;;;;;4975549;28;20078;-74
2022/01/01 12:07:42;;;;;;;1.38;1.25;;;;;;;;;;4959101;28;20034;-75
2022/01/01 12:10:08;;;;;;;2.35;1.60;;;;;;;;;;4973098;28;20668;-75
2022/01/01 12:12:47;;;;;;;2.03;1.80;;;;;;;;;;4967916;28;20031;-75
2022/01/01 12:15:37;;;;;;;2.03;1.83;;;;;;;;;;4975626;28;20033;-75
2022/01/01 12:18:14;;;;;;;3.80;1.60;;;;;;;;;;4968383;28;20054;-75
2022/01/01 12:20:45;;;;;;;2.25;2.00;;;;;;;;;;4970597;28;20026;-75
2022/01/01 12:23:20;;;;;;;1.80;1.60;;;;;;;;;;4970755;28;20135;-75
2022/01/01 12:25:46;;;;;;;4.90;1.80;;;;;;;;;;4985130;28;20027;-75
2022/01/01 12:28:18;;;;;;;3.67;1.70;;;;;;;;;;4987901;28;20040;-75
2022/01/01 12:30:48;;;;;;;2.03;1.83;;;;;;;;;;4972642;28;20038;-74
2022/01/01 12:33:39;;;;;;;3.10;1.90;;;;;;;;;;4974838;28;20026;-74
2022/01/01 12:36:06;;;;;;;4.45;2.03;;;;;;;;;;4985874;28;20057;-75
2022/01/01 12:38:32;;;;;;;3.17;1.75;;;;;;;;;;4957202;28;20030;-76
2022/01/01 12:41:11;;;;;;;1.52;1.42;;;;;;;;;;4969570;28;20036;-75
2022/01/01 12:43:54;;;;;;;2.25;1.40;;;;;;;;;;4987832;28;20060;-76
2022/01/01 12:46:22;;;;;;;1.52;1.40;;;;;;;;;;4984135;28;20023;-76
2022/01/01 12:48:47;;;;;;;2.28;1.33;;;;;;;;;;4962476;28;20519;-75
2022/01/01 12:51:15;;;;;;;2.67;1.70;;;;;;;;;;4985972;28;20022;-74
2022/01/01 12:53:41;;;;;;;1.40;1.30;;;;;;;;;;4985927;28;20083;-75
2022/01/01 12:56:11;;;;;;;1.38;1.27;;;;;;;;;;4985666;28;20389;-75
2022/01/01 12:58:48;;;;;;;2.08;1.60;;;;;;;;;;4987374;28;20030;-75
2022/01/01 13:01:24;;;;;;;2.80;1.52;;;;;;;;;;4970445;28;20034;-74
2022/01/01 13:04:00;;;;;;;2.10;1.42;;;;;;;;;;4985749;28;21078;-75
2022/01/01 13:06:30;;;;;;;2.85;1.83;;;;;;;;;;4987005;28;20367;-75
2022/01/01 13:09:03;;;;;;;5.10;1.80;;;;;;;;;;4972815;28;20035;-76
2022/01/01 13:11:29;;;;;;;2.08;1.80;;;;;;;;;;4973082;28;20027;-75
2022/01/01 13:13:54;;;;;;;2.65;1.85;;;;;;;;;;4973751;28;20122;-75
2022/01/01 13:16:20;;;;;;;1.98;1.77;;;;;;;;;;4970489;28;20038;-76
2022/01/01 13:18:45;;;;;;;2.92;2.30;;;;;;;;;;4970696;28;20031;-76
2022/01/01 13:21:10;;;;;;;4.22;2.85;;;;;;;;;;4972278;28;20042;-75
2022/01/01 13:23:36;;;;;;;2.85;2.35;;;;;;;;;;4974005;28;20027;-75
2022/01/01 13:26:02;;;;;;;2.13;1.92;;;;;;;;;;4969342;28;20030;-76
2022/01/01 13:28:29;;;;;;;2.35;1.88;;;;;;;;;;4986093;28;20497;-75
2022/01/01 13:30:54;;;;;;;2.40;1.90;;;;;;;;;;4955969;28;20043;-76
2022/01/01 13:33:21;;;;;;;1.67;1.58;;;;;;;;;;4983840;28;20122;-76
2022/01/01 13:35:49;;;;;;;1.73;1.63;;;;;;;;;;4968507;28;20045;-76
2022/01/01 13:38:15;;;;;;;2.30;2.10;;;;;;;;;;4973514;28;20396;-73
2022/01/01 13:40:43;;;;;;;1.80;1.70;;;;;;;;;;4974569;28;20034;-73
2022/01/01 13:43:09;;;;;;;2.22;2.03;;;;;;;;;;4972655;28;20119;-73
2022/01/01 13:45:34;;;;;;;1.75;1.65;;;;;;;;;;4971961;28;20026;-73
2022/01/01 13:48:07;;;;;;;1.75;1.65;;;;;;;;;;4974497;28;20035;-73
2022/01/01 13:50:43;;;;;;;1.80;1.70;;;;;;;;;;4973742;28;20085;-73
2022/01/01 13:53:09;;;;;;;2.05;1.95;;;;;;;;;;4959745;28;20026;-73
2022/01/01 13:55:35;;;;;;;2.10;1.90;;;;;;;;;;4987041;28;20050;-73
2022/01/01 13:58:03;;;;;;;1.90;1.80;;;;;;;;;;4988376;28;20520;-73
2022/01/01 14:00:29;;;;;;;1.98;1.88;;;;;;;;;;4972003;28;20038;-73
2022/01/01 14:02:54;;;;;;;2.20;2.00;;;;;;;;;;4987194;28;20037;-73
2022/01/01 14:05:20;;;;;;;1.85;1.75;;;;;;;;;;4974221;28;20040;-73
2022/01/01 14:07:46;;;;;;;2.00;1.90;;;;;;;;;;4973195;28;20023;-73
2022/01/01 14:10:15;;;;;;;1.80;1.70;;;;;;;;;;4988808;28;20066;-73
2022/01/01 14:12:42;;;;;;;1.92;1.77;;;;;;;;;;4987016;28;20046;-73
2022/01/01 14:15:19;;;;;;;2.00;1.90;;;;;;;;;;4975772;28;20049;-73
2022/01/01 14:17:47;;;;;;;1.75;1.65;;;;;;;;;;4976230;28;20037;-73
2022/01/01 14:20:28;;;;;;;2.85;1.80;;;;;;;;;;4977219;28;20054;-73
2022/01/01 14:22:54;;;;;;;1.70;1.60;;;;;;;;;;4990844;28;20027;-73
2022/01/01 14:25:19;;;;;;;1.55;1.45;;;;;;;;;;4975509;28;20382;-73
2022/01/01 14:27:45;;;;;;;1.73;1.63;;;;;;;;;;4978026;28;20204;-75
2022/01/01 14:30:10;;;;;;;1.48;1.38;;;;;;;;;;4977916;28;20121;-75
2022/01/01 14:32:36;;;;;;;1.63;1.52;;;;;;;;;;4976752;28;20121;-74
2022/01/01 14:35:04;;;;;;;1.63;1.52;;;;;;;;;;4989740;28;20035;-74
2022/01/01 14:37:30;;;;;;;1.80;1.70;;;;;;;;;;4977016;28;20370;-74
2022/01/01 14:39:55;;;;;;;1.60;1.50;;;;;;;;;;4975721;28;20041;-74
2022/01/01 14:42:21;;;;;;;1.63;1.50;;;;;;;;;;4976371;28;20084;-74
2022/01/01 14:44:46;;;;;;;2.97;1.52;;;;;;;;;;4989322;28;20600;-74
2022/01/01 14:47:20;;;;;;;1.58;1.48;;;;;;;;;;4976170;28;20452;-74
2022/01/01 14:49:46;;;;;;;1.40;1.30;;;;;;;;;;4961040;28;20042;-74